Time;durP1;ratioP1;P1;durP2;ratioP2;P2;SDS_P1;SDS_P2;PMS_P1;PMS_P2;Temp;Humidity;BMP_temperature;BMP_pressure;BME280_temperature;BME280_humidity;BME280_pressure;Samples;Min_cycle;Max_cycle;Signal;HPM_P1;HPM_P2
2021/08/28 00:03:57;;;;;;;8.15;4.82;;;;;;;15.21;89.17;101542.91;10118269;28;20054;-68
2021/08/28 00:08:53;;;;;;;7.65;4.78;;;;;;;15.18;89.54;101538.06;10116166;28;20458;-68
2021/08/28 00:13:50;;;;;;;7.25;5.22;;;;;;;15.18;89.49;101546.31;10119084;28;20055;-68
2021/08/28 00:18:46;;;;;;;10.57;6.00;;;;;;;15.14;90.01;101542.59;10102744;28;20085;-68
2021/08/28 00:23:43;;;;;;;8.18;5.30;;;;;;;15.17;89.72;101541.94;10109503;28;20075;-69
2021/08/28 00:28:39;;;;;;;7.20;5.05;;;;;;;15.19;89.59;101550.69;10112770;28;20047;-69
2021/08/28 00:33:36;;;;;;;6.93;4.70;;;;;;;15.22;89.72;101539.00;10116003;28;20102;-68
2021/08/28 00:38:32;;;;;;;9.52;5.63;;;;;;;15.21;89.75;101540.16;10104017;28;20416;-68
2021/08/28 00:43:29;;;;;;;9.55;5.35;;;;;;;15.22;90.17;101544.50;10114758;28;20050;-68
2021/08/28 00:48:26;;;;;;;8.77;5.60;;;;;;;15.26;90.13;101550.97;10116222;28;20054;-68
2021/08/28 00:53:22;;;;;;;8.02;4.88;;;;;;;15.26;90.47;101544.66;10112361;28;20165;-69
2021/08/28 00:58:23;;;;;;;8.27;5.68;;;;;;;15.25;90.38;101554.09;10115895;28;20074;-69
2021/08/28 01:03:33;;;;;;;8.20;5.05;;;;;;;15.26;90.31;101550.97;10103619;28;20517;-69
2021/08/28 01:08:40;;;;;;;8.55;5.05;;;;;;;15.25;90.55;101554.09;10109649;28;20054;-68
2021/08/28 01:13:39;;;;;;;7.80;5.55;;;;;;;15.24;90.52;101555.19;10101989;28;20106;-69
2021/08/28 01:18:39;;;;;;;9.15;5.90;;;;;;;15.22;90.48;101565.72;10112721;28;20054;-69
2021/08/28 01:23:37;;;;;;;8.30;4.53;;;;;;;15.20;90.55;101555.06;10105116;28;20067;-68
2021/08/28 01:28:42;;;;;;;5.65;3.40;;;;;;;15.17;89.88;101558.47;10110732;28;20102;-69
2021/08/28 01:33:40;;;;;;;6.50;2.50;;;;;;;15.14;89.87;101575.66;10103771;28;20047;-69
2021/08/28 01:38:38;;;;;;;4.22;2.30;;;;;;;15.11;89.55;101565.31;10103879;28;20066;-69
2021/08/28 01:43:35;;;;;;;5.47;2.00;;;;;;;15.07;88.77;101569.84;10108686;28;20078;-68
2021/08/28 01:48:32;;;;;;;4.28;2.22;;;;;;;15.05;89.07;101572.09;10101643;28;20043;-69
2021/08/28 01:53:28;;;;;;;4.63;2.30;;;;;;;15.06;89.02;101569.03;10104419;28;20193;-68
2021/08/28 01:58:28;;;;;;;3.75;1.95;;;;;;;15.04;89.21;101573.22;10102659;28;20899;-68
2021/08/28 02:03:24;;;;;;;5.43;1.95;;;;;;;15.01;89.07;101573.88;10112942;28;20141;-68
2021/08/28 02:08:27;;;;;;;5.35;2.42;;;;;;;14.99;89.63;101578.91;10111008;28;20130;-68
2021/08/28 02:13:39;;;;;;;4.18;2.30;;;;;;;14.97;89.67;101579.25;10102813;28;20089;-69
2021/08/28 02:18:44;;;;;;;4.40;2.60;;;;;;;15.00;89.63;101564.03;10110481;28;20050;-68
2021/08/28 02:24:03;;;;;;;7.20;2.95;;;;;;;14.97;89.68;101564.66;10099270;28;20640;-68
2021/08/28 02:29:02;;;;;;;6.50;3.33;;;;;;;14.90;90.00;101577.00;10105336;28;20049;-68
2021/08/28 02:34:01;;;;;;;5.13;2.70;;;;;;;14.87;89.98;101572.13;10103811;28;20478;-69
2021/08/28 02:38:57;;;;;;;7.18;2.85;;;;;;;14.85;89.73;101574.41;10105167;28;20146;-69
2021/08/28 02:43:57;;;;;;;4.63;2.78;;;;;;;14.83;89.87;101576.69;10102036;28;20078;-69
2021/08/28 02:48:55;;;;;;;5.95;2.33;;;;;;;14.85;89.60;101568.09;10092931;28;20174;-68
2021/08/28 02:53:52;;;;;;;7.03;3.40;;;;;;;14.85;89.99;101570.84;10105033;28;20130;-69
2021/08/28 02:58:48;;;;;;;6.70;2.60;;;;;;;14.82;90.08;101563.25;10094562;28;20158;-69
2021/08/28 03:03:46;;;;;;;3.90;2.40;;;;;;;14.77;89.68;101566.16;10103069;28;20047;-69
2021/08/28 03:08:44;;;;;;;7.90;3.17;;;;;;;14.76;89.61;101570.88;10099357;28;20093;-69
2021/08/28 03:13:41;;;;;;;6.82;3.30;;;;;;;14.74;89.99;101573.13;10100636;28;20055;-69
2021/08/28 03:18:40;;;;;;;11.93;3.05;;;;;;;14.73;89.77;101571.50;10090410;28;20475;-69
2021/08/28 03:23:39;;;;;;;5.72;3.22;;;;;;;14.73;89.86;101577.00;10097475;28;20509;-69
2021/08/28 03:28:36;;;;;;;7.40;2.63;;;;;;;14.66;89.36;101582.19;10099115;28;20079;-69
2021/08/28 03:33:33;;;;;;;6.50;3.58;;;;;;;14.65;89.72;101586.91;10100144;28;20078;-69
2021/08/28 03:38:30;;;;;;;6.70;3.28;;;;;;;14.67;90.03;101589.34;10102581;28;20142;-68
2021/08/28 03:43:26;;;;;;;5.78;2.83;;;;;;;14.62;89.94;101586.72;10100997;28;20094;-69
2021/08/28 03:48:23;;;;;;;4.43;2.50;;;;;;;14.66;89.91;101594.00;10104227;28;20078;-69
2021/08/28 03:53:19;;;;;;;3.72;2.15;;;;;;;14.65;90.08;101588.84;10101254;28;20051;-69
2021/08/28 03:58:16;;;;;;;5.35;2.40;;;;;;;14.66;89.90;101582.19;10105899;28;20108;-69
2021/08/28 04:03:12;;;;;;;5.93;2.58;;;;;;;14.63;89.94;101588.34;10106640;28;20077;-68
2021/08/28 04:08:10;;;;;;;5.35;1.95;;;;;;;14.64;90.13;101600.97;10102307;28;20118;-69
2021/08/28 04:13:06;;;;;;;5.93;3.13;;;;;;;14.64;90.25;101600.97;10098540;28;20130;-69
2021/08/28 04:18:03;;;;;;;4.13;2.53;;;;;;;14.67;90.27;101606.66;10098988;28;20046;-68
2021/08/28 04:22:59;;;;;;;5.60;2.47;;;;;;;14.66;90.29;101615.22;10103937;28;20528;-68
2021/08/28 04:27:58;;;;;;;5.97;2.90;;;;;;;14.61;90.35;101602.44;10103034;28;20416;-69
2021/08/28 04:32:56;;;;;;;6.07;2.80;;;;;;;14.64;91.01;101600.97;10100549;28;20509;-68
2021/08/28 04:37:53;;;;;;;8.15;3.20;;;;;;;14.63;90.58;101596.59;10102034;28;20043;-69
2021/08/28 04:42:52;;;;;;;3.40;2.00;;;;;;;14.63;90.57;101604.88;10103346;28;20038;-68
2021/08/28 04:47:49;;;;;;;5.50;2.63;;;;;;;14.59;90.57;101606.63;10110821;28;20568;-68
2021/08/28 04:52:45;;;;;;;4.53;2.53;;;;;;;14.59;90.66;101609.41;10101448;28;20085;-68
2021/08/28 04:57:42;;;;;;;7.90;2.35;;;;;;;14.53;90.62;101611.47;10111424;28;20109;-68
2021/08/28 05:02:38;;;;;;;6.85;2.30;;;;;;;14.52;90.17;101610.66;10104626;28;20046;-69
2021/08/28 05:07:35;;;;;;;6.43;3.30;;;;;;;14.49;90.70;101616.81;10105633;28;20058;-69
2021/08/28 05:12:32;;;;;;;7.35;3.85;;;;;;;14.53;90.98;101620.53;10107711;28;20561;-69
2021/08/28 05:17:29;;;;;;;5.25;3.85;;;;;;;14.48;91.38;101620.69;10106355;28;20050;-67
2021/08/28 05:22:26;;;;;;;9.27;4.75;;;;;;;14.50;91.18;101626.69;10109120;28;20043;-68
2021/08/28 05:27:23;;;;;;;9.73;5.75;;;;;;;14.45;92.20;101626.81;10105591;28;20035;-68
2021/08/28 05:32:19;;;;;;;11.20;7.10;;;;;;;14.44;92.50;101625.22;10109898;28;20043;-69
2021/08/28 05:37:15;;;;;;;13.43;8.00;;;;;;;14.47;92.53;101621.81;10102557;28;20046;-69
2021/08/28 05:42:12;;;;;;;14.77;8.07;;;;;;;14.49;92.74;101629.75;10110458;28;20762;-69
2021/08/28 05:47:08;;;;;;;15.30;9.65;;;;;;;14.45;93.32;101632.31;10104130;28;20043;-69
2021/08/28 05:52:05;;;;;;;13.52;9.70;;;;;;;14.53;93.26;101628.00;10106201;28;20077;-68
2021/08/28 05:57:02;;;;;;;17.23;10.95;;;;;;;14.57;93.63;101625.41;10110935;28;20552;-68
2021/08/28 06:01:58;;;;;;;16.92;10.93;;;;;;;14.59;93.97;101636.91;10108409;28;20090;-68
2021/08/28 06:06:55;;;;;;;14.82;10.20;;;;;;;14.65;93.44;101635.63;10105161;28;20043;-68
2021/08/28 06:11:52;;;;;;;16.52;10.65;;;;;;;14.67;93.23;101633.38;10102316;28;20493;-69
2021/08/28 06:16:48;;;;;;;16.23;11.48;;;;;;;14.69;93.28;101625.56;10098161;28;20501;-70
2021/08/28 06:21:45;;;;;;;16.30;10.70;;;;;;;14.80;93.33;101624.13;10103521;28;20497;-68
2021/08/28 06:26:41;;;;;;;17.27;10.10;;;;;;;14.83;93.12;101629.00;10103564;28;20093;-70
2021/08/28 06:31:38;;;;;;;17.08;9.73;;;;;;;14.95;93.04;101633.84;10100250;28;20101;-71
2021/08/28 06:36:34;;;;;;;12.77;9.25;;;;;;;15.00;93.72;101641.13;10099819;28;20046;-69
2021/08/28 06:41:31;;;;;;;12.55;9.02;;;;;;;15.08;93.20;101637.53;10109025;28;20110;-67
2021/08/28 06:46:27;;;;;;;13.95;8.75;;;;;;;15.09;93.52;101633.66;10099269;28;20120;-70
2021/08/28 06:51:24;;;;;;;15.27;8.63;;;;;;;15.03;93.77;101645.97;10107357;28;20528;-69
2021/08/28 06:56:21;;;;;;;11.18;8.18;;;;;;;15.12;93.65;101649.53;10104862;28;20497;-68
2021/08/28 07:01:21;;;;;;;13.13;8.55;;;;;;;15.20;93.20;101640.47;10106960;28;20070;-69
2021/08/28 07:06:18;;;;;;;12.80;7.85;;;;;;;15.23;93.58;101645.31;10105723;28;20046;-69
2021/08/28 07:11:15;;;;;;;11.45;7.43;;;;;;;15.26;93.48;101633.63;10100622;28;20122;-69
2021/08/28 07:16:11;;;;;;;12.02;8.48;;;;;;;15.29;93.04;101644.00;10103513;28;20508;-68
2021/08/28 07:21:09;;;;;;;10.35;7.15;;;;;;;15.22;93.19;101651.13;10100270;28;20409;-69
2021/08/28 07:26:06;;;;;;;13.60;7.20;;;;;;;15.25;93.59;101653.25;10106578;28;20837;-69
2021/08/28 07:31:02;;;;;;;11.70;7.50;;;;;;;15.28;93.13;101658.09;10097638;28;20182;-68
2021/08/28 07:35:59;;;;;;;11.55;7.45;;;;;;;15.34;93.48;101657.59;10096813;28;20047;-68
2021/08/28 07:40:56;;;;;;;12.10;6.78;;;;;;;15.36;93.18;101663.59;10099621;28;20114;-68
2021/08/28 07:45:52;;;;;;;10.90;6.22;;;;;;;15.43;93.49;101654.81;10101735;28;20698;-69
2021/08/28 07:50:49;;;;;;;10.25;6.22;;;;;;;15.51;93.09;101655.94;10106850;28;20061;-68
2021/08/28 07:55:45;;;;;;;10.40;6.63;;;;;;;15.54;93.38;101656.09;10096453;28;20130;-69
2021/08/28 08:00:42;;;;;;;8.50;5.80;;;;;;;15.69;93.46;101667.75;10105012;28;20047;-68
2021/08/28 08:05:38;;;;;;;10.75;5.30;;;;;;;15.74;92.92;101657.34;10102690;28;20051;-69
2021/08/28 08:10:35;;;;;;;11.35;6.30;;;;;;;15.73;92.53;101653.00;10107846;28;20043;-68
2021/08/28 08:15:32;;;;;;;7.40;4.45;;;;;;;15.69;92.42;101643.72;10101052;28;20072;-68
2021/08/28 08:20:29;;;;;;;6.70;4.70;;;;;;;15.82;92.29;101654.91;10111875;28;20094;-69
2021/08/28 08:25:27;;;;;;;8.48;4.70;;;;;;;15.90;92.41;101663.13;10103636;28;20059;-69
2021/08/28 08:30:24;;;;;;;8.15;4.18;;;;;;;16.00;91.97;101661.97;10114283;28;20080;-68
2021/08/28 08:35:20;;;;;;;9.38;4.68;;;;;;;16.07;92.04;101662.25;10113304;28;20085;-69
2021/08/28 08:40:17;;;;;;;9.50;4.80;;;;;;;16.23;92.07;101672.72;10102261;28;20098;-69
2021/08/28 08:45:13;;;;;;;4.78;3.15;;;;;;;16.36;91.99;101671.66;10106838;28;20513;-68
2021/08/28 08:50:10;;;;;;;5.68;3.58;;;;;;;16.33;91.51;101669.56;10108602;28;20046;-69
2021/08/28 08:55:07;;;;;;;6.55;3.70;;;;;;;16.19;91.66;101678.88;10100679;28;20050;-68
2021/08/28 09:00:04;;;;;;;4.38;2.63;;;;;;;16.11;91.44;101668.72;10110023;28;20489;-69
2021/08/28 09:05:00;;;;;;;5.97;2.92;;;;;;;15.99;91.45;101674.16;10110609;28;20035;-69
2021/08/28 09:09:57;;;;;;;3.88;1.92;;;;;;;16.00;92.66;101678.50;10109187;28;20058;-68
2021/08/28 09:14:58;;;;;;;4.57;1.92;;;;;;;16.18;92.61;101669.00;10103797;28;20108;-68
2021/08/28 09:19:54;;;;;;;3.53;1.40;;;;;;;16.17;91.87;101677.59;10110079;28;20071;-69
2021/08/28 09:24:54;;;;;;;2.70;1.40;;;;;;;16.30;92.09;101678.53;10098035;28;20070;-68
2021/08/28 09:29:51;;;;;;;3.35;1.30;;;;;;;16.24;92.00;101677.09;10107260;28;20047;-69
2021/08/28 09:34:47;;;;;;;1.98;0.93;;;;;;;16.16;91.60;101687.84;10106358;28;20054;-69
2021/08/28 09:39:46;;;;;;;2.88;1.00;;;;;;;16.30;91.73;101686.81;10103121;28;20497;-69
2021/08/28 09:44:44;;;;;;;3.92;1.20;;;;;;;16.50;90.76;101675.00;10094805;28;20070;-68
2021/08/28 09:49:45;;;;;;;3.92;1.58;;;;;;;16.43;91.06;101677.47;10103885;28;20082;-69
2021/08/28 09:54:42;;;;;;;3.65;1.55;;;;;;;16.44;89.82;101681.84;10103558;28;20070;-68
2021/08/28 09:59:39;;;;;;;3.13;1.50;;;;;;;16.51;90.29;101687.63;10103610;28;20082;-69
2021/08/28 10:04:53;;;;;;;3.28;1.48;;;;;;;16.25;90.42;101685.03;10106250;28;20051;-69
2021/08/28 10:09:57;;;;;;;3.88;1.60;;;;;;;16.37;90.68;101687.09;10105056;28;20145;-68
2021/08/28 10:15:00;;;;;;;6.07;1.58;;;;;;;16.26;90.48;101686.66;10100264;28;20090;-69
2021/08/28 10:19:58;;;;;;;3.83;1.75;;;;;;;16.16;90.33;101687.84;10106900;28;20050;-69
2021/08/28 10:24:57;;;;;;;5.32;2.67;;;;;;;16.17;90.67;101688.63;10105324;28;20039;-68
2021/08/28 10:29:53;;;;;;;5.90;2.30;;;;;;;16.45;90.85;101686.22;10107926;28;20078;-70
2021/08/28 10:34:51;;;;;;;4.30;1.95;;;;;;;16.61;91.25;101695.53;10100487;28;20497;-69
2021/08/28 10:39:49;;;;;;;4.32;1.90;;;;;;;16.69;90.70;101687.53;10108194;28;20137;-69
2021/08/28 10:44:50;;;;;;;4.43;1.80;;;;;;;16.77;90.29;101683.88;10100347;28;20593;-70
2021/08/28 10:49:52;;;;;;;6.43;2.42;;;;;;;16.73;90.71;101689.28;10105550;28;20077;-69
2021/08/28 10:55:03;;;;;;;6.18;1.58;;;;;;;16.50;88.80;101690.72;10100654;28;20066;-69
2021/08/28 11:00:04;;;;;;;4.22;1.35;;;;;;;16.42;89.09;101695.97;10102833;28;20093;-69
2021/08/28 11:05:17;;;;;;;5.28;1.80;;;;;;;16.60;89.40;101696.69;10098247;28;20358;-69
2021/08/28 11:10:18;;;;;;;6.10;2.20;;;;;;;16.66;88.92;101696.47;10103299;28;20082;-69
2021/08/28 11:15:32;;;;;;;2.95;1.50;;;;;;;16.66;89.13;101699.22;10101056;28;20147;-69
2021/08/28 11:20:32;;;;;;;6.60;1.50;;;;;;;16.65;88.25;101697.63;10109205;28;20042;-69
2021/08/28 11:25:32;;;;;;;3.80;1.30;;;;;;;16.47;87.23;101703.25;10102545;28;20066;-69
2021/08/28 11:30:41;;;;;;;3.60;1.52;;;;;;;16.37;87.14;101704.44;10103146;28;20047;-69
2021/08/28 11:35:45;;;;;;;3.80;1.27;;;;;;;16.21;88.25;101695.13;10094639;28;20102;-68
2021/08/28 11:40:42;;;;;;;2.05;1.10;;;;;;;16.36;88.43;101696.50;10100463;28;20553;-68
2021/08/28 11:45:40;;;;;;;4.28;1.20;;;;;;;16.44;89.33;101709.44;10107872;28;20105;-68
2021/08/28 11:50:37;;;;;;;2.40;1.05;;;;;;;16.40;89.12;101702.97;10106641;28;20051;-68
2021/08/28 11:55:36;;;;;;;6.35;1.50;;;;;;;16.45;89.38;101701.97;10097594;28;20035;-68
2021/08/28 12:00:34;;;;;;;4.00;1.45;;;;;;;16.40;88.81;101702.97;10105216;28;20163;-68
2021/08/28 12:05:31;;;;;;;2.72;0.90;;;;;;;16.30;89.22;101708.88;10102190;28;20047;-68
2021/08/28 12:10:27;;;;;;;3.67;1.42;;;;;;;16.32;89.27;101712.13;10106708;28;20054;-68
2021/08/28 12:15:25;;;;;;;1.52;0.75;;;;;;;16.22;89.55;101706.97;10101271;28;20509;-68
2021/08/28 12:20:24;;;;;;;2.30;1.00;;;;;;;16.26;89.86;101716.19;10101615;28;20086;-68
2021/08/28 12:25:22;;;;;;;2.72;0.90;;;;;;;16.38;90.44;101717.13;10105120;28;20089;-68
2021/08/28 12:30:21;;;;;;;3.75;1.08;;;;;;;16.46;90.30;101712.69;10103651;28;20054;-68
2021/08/28 12:35:18;;;;;;;5.20;1.10;;;;;;;16.31;90.80;101716.00;10105926;28;20109;-68
2021/08/28 12:40:14;;;;;;;2.88;0.90;;;;;;;16.23;91.17;101720.44;10103328;28;20082;-69
2021/08/28 12:45:17;;;;;;;2.97;0.88;;;;;;;16.25;90.53;101717.34;10104614;28;20098;-68
2021/08/28 12:50:17;;;;;;;4.43;1.10;;;;;;;16.23;90.29;101714.13;10100018;28;20082;-68
2021/08/28 12:55:29;;;;;;;3.55;1.17;;;;;;;16.23;90.85;101714.13;10103125;28;20117;-68
2021/08/28 13:00:31;;;;;;;3.25;1.20;;;;;;;16.18;90.74;101712.34;10108182;28;20425;-68
2021/08/28 13:05:31;;;;;;;2.70;1.00;;;;;;;16.30;89.82;101711.63;10105228;28;20050;-68
2021/08/28 13:10:30;;;;;;;3.22;0.93;;;;;;;16.36;89.10;101711.13;10107599;28;20126;-68
2021/08/28 13:15:29;;;;;;;4.53;0.95;;;;;;;16.44;90.14;101714.16;10109573;28;20160;-68
2021/08/28 13:20:35;;;;;;;3.30;0.80;;;;;;;16.39;90.23;101709.66;10107737;28;20055;-68
2021/08/28 13:25:39;;;;;;;2.45;1.30;;;;;;;16.33;89.78;101713.72;10100141;28;20059;-70
2021/08/28 13:30:36;;;;;;;4.22;0.70;;;;;;;16.31;89.76;101710.47;10102648;28;20409;-68
2021/08/28 13:35:38;;;;;;;4.30;0.80;;;;;;;16.24;89.93;101705.47;10098807;28;20046;-67
2021/08/28 13:40:37;;;;;;;3.77;1.97;;;;;;;16.18;89.83;101707.63;10094394;28;20568;-67
2021/08/28 13:45:34;;;;;;;2.08;0.75;;;;;;;16.10;90.48;101714.00;10100217;28;20051;-68
2021/08/28 13:50:31;;;;;;;2.58;0.70;;;;;;;16.20;91.04;101701.78;10108430;28;20050;-67
2021/08/28 13:55:28;;;;;;;1.83;0.80;;;;;;;16.16;90.73;101704.41;10105336;28;20135;-68
2021/08/28 14:00:24;;;;;;;4.53;0.80;;;;;;;16.23;90.78;101703.06;10104846;28;20145;-68
2021/08/28 14:05:21;;;;;;;3.70;1.20;;;;;;;16.32;90.64;101695.56;10107256;28;20043;-68
2021/08/28 14:10:17;;;;;;;5.85;0.90;;;;;;;16.51;90.84;101695.13;10107399;28;20079;-68
2021/08/28 14:15:14;;;;;;;4.05;1.00;;;;;;;16.54;89.99;101694.44;10103347;28;20093;-68
2021/08/28 14:20:15;;;;;;;2.65;1.00;;;;;;;16.38;88.19;101696.97;10106222;28;20456;-68
2021/08/28 14:25:13;;;;;;;3.88;1.23;;;;;;;16.40;88.32;101698.25;10100304;28;20042;-68
2021/08/28 14:30:11;;;;;;;3.20;1.00;;;;;;;16.39;88.52;101698.59;10107448;28;20642;-68
2021/08/28 14:35:08;;;;;;;5.25;1.30;;;;;;;16.37;88.79;101698.13;10101822;28;20421;-68
2021/08/28 14:40:07;;;;;;;4.57;1.10;;;;;;;16.33;88.55;101697.16;10108094;28;20129;-68
2021/08/28 14:45:07;;;;;;;3.35;1.40;;;;;;;16.24;88.40;101697.19;10105350;28;20073;-68
2021/08/28 14:50:05;;;;;;;5.15;1.25;;;;;;;16.11;88.20;101701.81;10104086;28;20480;-68
2021/08/28 14:55:03;;;;;;;2.90;1.10;;;;;;;16.05;88.76;101696.81;10102404;28;20086;-68
2021/08/28 15:00:00;;;;;;;3.40;1.30;;;;;;;15.97;89.84;101706.75;10108603;28;20058;-68
2021/08/28 15:04:56;;;;;;;4.95;1.13;;;;;;;15.86;90.22;101711.00;10108380;28;20051;-68
2021/08/28 15:09:53;;;;;;;6.15;1.70;;;;;;;15.78;90.35;101709.88;10098538;28;20054;-68
2021/08/28 15:14:49;;;;;;;4.32;1.75;;;;;;;15.77;90.14;101706.31;10097855;28;20046;-68
2021/08/28 15:19:45;;;;;;;3.55;1.50;;;;;;;15.77;89.78;101709.06;10102968;28;20148;-68
2021/08/28 15:24:43;;;;;;;11.70;2.53;;;;;;;15.75;90.42;101713.31;10099800;28;20113;-68
2021/08/28 15:29:39;;;;;;;3.90;1.27;;;;;;;15.67;90.71;101709.41;10105674;28;20093;-68
2021/08/28 15:34:37;;;;;;;3.00;1.58;;;;;;;15.70;91.31;101708.78;10103867;28;20673;-68
2021/08/28 15:39:34;;;;;;;5.25;1.23;;;;;;;15.73;91.31;101713.66;10099259;28;20050;-70
2021/08/28 15:44:30;;;;;;;5.00;1.77;;;;;;;15.72;91.10;101709.25;10100734;28;20110;-67
2021/08/28 15:49:27;;;;;;;4.07;1.70;;;;;;;15.78;91.43;101715.41;10101683;28;20070;-67
2021/08/28 15:54:23;;;;;;;7.28;2.10;;;;;;;15.82;92.37;101718.31;10096662;28;20050;-66
2021/08/28 15:59:20;;;;;;;6.95;2.40;;;;;;;15.86;92.06;101719.28;10102922;28;20078;-68
2021/08/28 16:04:16;;;;;;;5.20;2.58;;;;;;;15.74;91.41;101715.25;10096712;28;20039;-69
2021/08/28 16:09:13;;;;;;;5.22;2.72;;;;;;;15.67;90.62;101709.41;10100750;28;20085;-68
2021/08/28 16:14:10;;;;;;;5.45;2.67;;;;;;;15.59;90.91;101710.22;10104569;28;20126;-68
2021/08/28 16:19:09;;;;;;;7.90;3.15;;;;;;;15.52;91.40;101718.19;10097404;28;20045;-68
2021/08/28 16:24:05;;;;;;;8.35;3.35;;;;;;;15.56;90.75;101713.66;10099449;28;20493;-68
2021/08/28 16:29:02;;;;;;;8.27;2.97;;;;;;;15.60;90.33;101719.34;10101666;28;20133;-68
2021/08/28 16:34:03;;;;;;;9.57;3.20;;;;;;;15.56;90.74;101714.44;10107615;28;20061;-69
2021/08/28 16:39:00;;;;;;;5.03;3.25;;;;;;;15.64;90.62;101715.59;10110321;28;20061;-69
2021/08/28 16:43:56;;;;;;;7.72;3.33;;;;;;;15.66;90.89;101713.28;10113343;28;20156;-68
2021/08/28 16:48:55;;;;;;;12.82;4.40;;;;;;;15.63;91.50;101716.72;10107275;28;20517;-69
2021/08/28 16:53:53;;;;;;;8.07;4.10;;;;;;;15.61;91.54;101699.69;10104854;28;20453;-68
2021/08/28 16:58:51;;;;;;;9.60;4.32;;;;;;;15.64;91.48;101704.56;10108715;28;20050;-69
2021/08/28 17:03:47;;;;;;;7.82;3.83;;;;;;;15.62;91.28;101706.00;10110718;28;20081;-68
2021/08/28 17:08:44;;;;;;;7.90;4.00;;;;;;;15.57;91.35;101704.22;10108723;28;20134;-68
2021/08/28 17:13:40;;;;;;;7.30;4.15;;;;;;;15.55;91.78;101701.03;10104419;28;20511;-68
2021/08/28 17:18:37;;;;;;;8.30;3.75;;;;;;;15.54;91.65;101705.69;10108516;28;20058;-69
2021/08/28 17:23:33;;;;;;;11.93;4.82;;;;;;;15.43;91.90;101714.63;10106436;28;20082;-68
2021/08/28 17:28:30;;;;;;;7.80;3.88;;;;;;;15.31;91.78;101718.84;10107807;28;20042;-69
2021/08/28 17:33:27;;;;;;;9.02;4.28;;;;;;;15.22;92.39;101720.81;10105455;28;20501;-69
2021/08/28 17:38:23;;;;;;;7.65;3.92;;;;;;;15.18;92.73;101730.03;10104128;28;20512;-68
2021/08/28 17:43:20;;;;;;;7.38;4.03;;;;;;;15.06;93.13;101727.94;10101585;28;20035;-68
2021/08/28 17:48:16;;;;;;;8.57;3.80;;;;;;;15.04;93.74;101736.56;10105289;28;20105;-68
2021/08/28 17:53:13;;;;;;;7.50;3.92;;;;;;;14.99;93.30;101733.94;10109044;28;20134;-68
2021/08/28 17:58:09;;;;;;;12.00;5.30;;;;;;;14.99;94.01;101738.63;10104813;28;20062;-68
2021/08/28 18:03:06;;;;;;;10.75;4.60;;;;;;;14.96;93.70;101739.28;10111071;28;20039;-68
2021/08/28 18:08:03;;;;;;;12.32;5.32;;;;;;;14.93;93.90;101747.06;10108501;28;20085;-68
2021/08/28 18:12:59;;;;;;;11.02;5.93;;;;;;;14.89;94.46;101740.56;10107076;28;20098;-68
2021/08/28 18:17:56;;;;;;;8.15;4.75;;;;;;;14.92;94.37;101742.69;10100368;28;20113;-68
2021/08/28 18:22:53;;;;;;;8.20;4.85;;;;;;;14.93;94.27;101747.06;10109357;28;20474;-68
2021/08/28 18:27:49;;;;;;;8.48;4.03;;;;;;;14.84;94.31;101743.47;10105989;28;20480;-68
2021/08/28 18:32:50;;;;;;;8.32;4.30;;;;;;;14.83;94.68;101747.38;10104975;28;20038;-68
2021/08/28 18:37:47;;;;;;;8.38;4.63;;;;;;;14.84;94.13;101751.75;10107218;28;20043;-68
2021/08/28 18:42:43;;;;;;;9.95;4.55;;;;;;;14.83;94.63;101755.66;10100675;28;20066;-68
2021/08/28 18:47:40;;;;;;;9.20;4.70;;;;;;;14.84;94.20;101754.50;10095277;28;20042;-68
2021/08/28 18:52:36;;;;;;;8.25;4.40;;;;;;;14.83;94.17;101755.66;10105803;28;20070;-68
2021/08/28 18:57:33;;;;;;;8.32;4.47;;;;;;;14.84;94.46;101760.00;10104363;28;20059;-67
2021/08/28 19:02:29;;;;;;;11.52;4.28;;;;;;;14.82;94.55;101751.25;10100941;28;20050;-67
2021/08/28 19:07:26;;;;;;;8.45;5.30;;;;;;;14.79;94.52;101757.41;10104930;28;20054;-68
2021/08/28 19:12:23;;;;;;;10.00;5.22;;;;;;;14.78;94.67;101755.78;10103668;28;20130;-68
2021/08/28 19:17:19;;;;;;;8.07;4.70;;;;;;;14.72;95.00;101757.06;10101537;28;20101;-68
2021/08/28 19:22:15;;;;;;;11.57;5.95;;;;;;;14.71;94.65;101758.19;10106147;28;20497;-68
2021/08/28 19:27:12;;;;;;;10.65;5.50;;;;;;;14.72;94.68;101757.06;10103845;28;22533;-68
2021/08/28 19:32:09;;;;;;;11.13;5.43;;;;;;;14.66;94.61;101758.34;10105248;28;20048;-69
2021/08/28 19:37:05;;;;;;;10.00;5.43;;;;;;;14.70;95.00;101751.06;10100229;28;20047;-68
2021/08/28 19:42:02;;;;;;;9.40;5.07;;;;;;;14.64;94.90;101749.59;10099997;28;20480;-68
2021/08/28 19:46:58;;;;;;;8.27;5.32;;;;;;;14.64;95.15;101750.41;10101352;28;20542;-68
2021/08/28 19:51:57;;;;;;;11.55;6.20;;;;;;;14.61;95.05;101755.75;10103316;28;20101;-67
2021/08/28 19:56:53;;;;;;;10.90;6.63;;;;;;;14.61;95.30;101744.75;10089214;28;20051;-68
2021/08/28 20:01:51;;;;;;;11.88;6.72;;;;;;;14.64;94.91;101744.09;10102898;28;20390;-68
2021/08/28 20:06:47;;;;;;;8.90;5.63;;;;;;;14.60;95.20;101737.63;10096984;28;20059;-68
2021/08/28 20:11:45;;;;;;;9.07;6.07;;;;;;;14.57;94.78;101743.75;10112913;28;20043;-68
2021/08/28 20:16:42;;;;;;;13.20;7.22;;;;;;;14.59;94.83;101733.25;10110334;28;20085;-68
2021/08/28 20:21:39;;;;;;;10.45;5.65;;;;;;;14.57;94.24;101732.75;10114880;28;20165;-68
2021/08/28 20:26:35;;;;;;;14.25;6.63;;;;;;;14.56;94.41;101731.13;10107191;28;20074;-68
2021/08/28 20:31:32;;;;;;;10.95;6.22;;;;;;;14.53;94.33;101727.84;10105595;28;20082;-68
2021/08/28 20:36:28;;;;;;;15.50;6.13;;;;;;;14.49;94.43;101721.38;10113067;28;20047;-68
2021/08/28 20:41:25;;;;;;;9.32;5.55;;;;;;;14.48;94.57;101725.25;10108281;28;20055;-68
2021/08/28 20:46:24;;;;;;;9.40;5.28;;;;;;;14.51;94.40;101721.84;10109739;28;20125;-68
2021/08/28 20:51:21;;;;;;;10.73;5.72;;;;;;;14.51;93.93;101724.63;10106919;28;20405;-68
2021/08/28 20:56:17;;;;;;;11.52;6.53;;;;;;;14.52;94.22;101726.22;10105716;28;20394;-68
2021/08/28 21:01:14;;;;;;;9.20;5.70;;;;;;;14.47;93.97;101726.38;10103158;28;20086;-68
2021/08/28 21:06:11;;;;;;;11.38;5.95;;;;;;;14.45;94.29;101734.13;10106950;28;20054;-68
2021/08/28 21:11:07;;;;;;;11.85;6.72;;;;;;;14.49;94.18;101726.88;10105378;28;20039;-68
2021/08/28 21:16:04;;;;;;;9.75;5.82;;;;;;;14.46;94.10;101732.22;10112222;28;20074;-68
2021/08/28 21:21:00;;;;;;;11.20;6.70;;;;;;;14.51;94.36;101732.88;10107251;28;20133;-68
2021/08/28 21:25:57;;;;;;;13.27;5.95;;;;;;;14.49;93.87;101721.38;10107250;28;20491;-68
2021/08/28 21:30:57;;;;;;;11.60;6.47;;;;;;;14.44;94.01;101729.78;10106321;28;20046;-68
2021/08/28 21:35:53;;;;;;;9.38;5.95;;;;;;;14.41;94.08;101719.41;10097631;28;20174;-68
2021/08/28 21:40:50;;;;;;;15.73;7.18;;;;;;;14.43;94.02;101717.13;10110217;28;20094;-67
2021/08/28 21:45:46;;;;;;;14.13;6.43;;;;;;;14.36;93.90;101708.53;10103348;28;20050;-68
2021/08/28 21:50:43;;;;;;;11.45;6.85;;;;;;;14.36;94.22;101722.28;10094779;28;20062;-68
2021/08/28 21:55:39;;;;;;;13.60;7.45;;;;;;;14.35;94.01;101708.88;10105332;28;20074;-68
2021/08/28 22:00:41;;;;;;;11.90;6.60;;;;;;;14.40;94.19;101715.03;10098393;28;20047;-67
2021/08/28 22:05:39;;;;;;;12.95;6.60;;;;;;;14.34;93.96;101719.03;10098470;28;20046;-68
2021/08/28 22:10:37;;;;;;;12.80;6.80;;;;;;;14.34;94.38;101713.53;10108822;28;20046;-68
2021/08/28 22:15:34;;;;;;;13.13;7.13;;;;;;;14.35;93.99;101703.38;10109629;28;20055;-68
2021/08/28 22:20:31;;;;;;;13.20;7.38;;;;;;;14.36;93.91;101694.78;10108727;28;20465;-68
2021/08/28 22:25:27;;;;;;;10.98;6.75;;;;;;;14.30;94.09;101682.31;10102707;28;20126;-68
2021/08/28 22:30:24;;;;;;;19.55;7.15;;;;;;;14.27;94.10;101682.94;10111181;28;20578;-68
2021/08/28 22:35:20;;;;;;;12.43;7.13;;;;;;;14.32;93.66;101685.56;10103595;28;20043;-68
2021/08/28 22:40:17;;;;;;;11.55;6.40;;;;;;;14.28;94.37;101684.59;10104847;28;20501;-68
2021/08/28 22:45:13;;;;;;;13.80;6.40;;;;;;;14.32;93.74;101682.81;10105418;28;20677;-68